^^
No Wait Weather (KNEBELLE1) Station Historical Data
Daily Summary for May 13, 2019 Units:  English    Metric   Both
Daily Weekly Monthly Yearly Custom
  High: Low: Average:
Temperature: 68.1 °F 42.1 °F 55.6 °F
Dew Point: 56.02 °F 41.31 °F 48.2 °F
Humidity: 100% 48% 79%
Wind Speed: 4mph 0mph 0.1mph
Wind Gust: 10mph - -
Wind- - SW
Pressure: 29.86 in 29.71 in -
Precipitation: 0 in    
Historical Graphs
 
 
Tabular Data for May 13, 2019
Time Temperature Dew Point Pressure Wind Wind Speed Wind Gust Humidity Rainfall Rate (Hourly) solar
00:04 46.2 °F 43.43 °F 29.79 in Calm     90% 0 in WeatherCatV3.04B91 W/m2
00:09 46.1 °F 43.62 °F 29.79 in Calm     91% 0 in WeatherCatV3.04B91 W/m2
00:14 46.1 °F 43.62 °F 29.79 in Calm     91% 0 in WeatherCatV3.04B91 W/m2
00:19 46.1 °F 43.62 °F 29.79 in Calm     91% 0 in WeatherCatV3.04B91 W/m2
00:24 46 °F 43.81 °F 29.79 in Calm     92% 0 in WeatherCatV3.04B91 W/m2
00:29 45.8 °F 43.61 °F 29.79 in Calm     92% 0 in WeatherCatV3.04B91 W/m2
00:34 45.8 °F 43.61 °F 29.78 in Calm     92% 0 in WeatherCatV3.04B91 W/m2
00:39 45.7 °F 43.51 °F 29.78 in Calm     92% 0 in WeatherCatV3.04B91 W/m2
00:44 45.7 °F 43.51 °F 29.78 in Calm     92% 0 in WeatherCatV3.04B91 W/m2
00:49 45.7 °F 43.79 °F 29.78 in Calm     93% 0 in WeatherCatV3.04B91 W/m2
00:54 45.7 °F 43.79 °F 29.78 in Calm     93% 0 in WeatherCatV3.04B91 W/m2
00:59 45.7 °F 43.79 °F 29.79 in Calm     93% 0 in WeatherCatV3.04B91 W/m2
01:04 45.7 °F 43.79 °F 29.79 in Calm     93% 0 in WeatherCatV3.04B91 W/m2
01:09 45.4 °F 43.5 °F 29.79 in Calm     93% 0 in WeatherCatV3.04B91 W/m2
01:14 45.2 °F 43.3 °F 29.79 in Calm     93% 0 in WeatherCatV3.04B91 W/m2
01:19 45.1 °F 43.2 °F 29.78 in Calm     93% 0 in WeatherCatV3.04B91 W/m2
01:24 44.9 °F 43 °F 29.78 in Calm     93% 0 in WeatherCatV3.04B91 W/m2
01:29 44.8 °F 43.18 °F 29.78 in Calm     94% 0 in WeatherCatV3.04B91 W/m2
01:34 44.8 °F 43.18 °F 29.78 in Calm     94% 0 in WeatherCatV3.04B91 W/m2
01:39 44.8 °F 43.18 °F 29.78 in Calm     94% 0 in WeatherCatV3.04B91 W/m2
01:44 44.6 °F 42.98 °F 29.78 in Calm     94% 0 in WeatherCatV3.04B91 W/m2
01:49 44.6 °F 42.98 °F 29.78 in Calm     94% 0 in WeatherCatV3.04B91 W/m2
01:54 44.6 °F 42.98 °F 29.78 in Calm     94% 0 in WeatherCatV3.04B91 W/m2
01:59 44.5 °F 42.88 °F 29.78 in Calm     94% 0 in WeatherCatV3.04B91 W/m2
02:04 44.5 °F 42.88 °F 29.78 in Calm     94% 0 in WeatherCatV3.04B91 W/m2
02:09 44.3 °F 42.68 °F 29.78 in Calm     94% 0 in WeatherCatV3.04B91 W/m2
02:14 44.2 °F 42.58 °F 29.79 in Calm     94% 0 in WeatherCatV3.04B91 W/m2
02:19 44.2 °F 42.86 °F 29.79 in Calm     95% 0 in WeatherCatV3.04B91 W/m2
02:24 44.2 °F 42.86 °F 29.79 in Calm     95% 0 in WeatherCatV3.04B91 W/m2
02:29 44.1 °F 42.76 °F 29.79 in Calm     95% 0 in WeatherCatV3.04B91 W/m2
02:34 44.1 °F 42.76 °F 29.79 in Calm     95% 0 in WeatherCatV3.04B91 W/m2
02:39 44.1 °F 42.76 °F 29.79 in Calm     95% 0 in WeatherCatV3.04B91 W/m2
02:44 44.1 °F 42.76 °F 29.79 in Calm     95% 0 in WeatherCatV3.04B91 W/m2
02:49 44.1 °F 42.76 °F 29.79 in Calm     95% 0 in WeatherCatV3.04B91 W/m2
02:54 43.9 °F 42.56 °F 29.79 in Calm     95% 0 in WeatherCatV3.04B91 W/m2
02:59 43.9 °F 42.56 °F 29.79 in Calm     95% 0 in WeatherCatV3.04B91 W/m2
03:04 43.8 °F 42.46 °F 29.79 in Calm     95% 0 in WeatherCatV3.04B91 W/m2
03:09 43.8 °F 42.46 °F 29.79 in Calm     95% 0 in WeatherCatV3.04B91 W/m2
03:14 43.8 °F 42.73 °F 29.79 in Calm     96% 0 in WeatherCatV3.04B91 W/m2
03:19 43.9 °F 42.83 °F 29.79 in Calm     96% 0 in WeatherCatV3.04B91 W/m2
03:24 43.8 °F 42.73 °F 29.79 in Calm     96% 0 in WeatherCatV3.04B91 W/m2
03:29 43.8 °F 42.73 °F 29.80 in Calm     96% 0 in WeatherCatV3.04B91 W/m2
03:34 43.8 °F 42.73 °F 29.80 in Calm     96% 0 in WeatherCatV3.04B91 W/m2
03:39 43.8 °F 42.73 °F 29.80 in Calm     96% 0 in WeatherCatV3.04B91 W/m2
03:44 43.8 °F 42.73 °F 29.80 in Calm     96% 0 in WeatherCatV3.04B91 W/m2
03:49 43.8 °F 42.73 °F 29.80 in Calm     96% 0 in WeatherCatV3.04B91 W/m2
03:54 43.8 °F 42.73 °F 29.80 in Calm     96% 0 in WeatherCatV3.04B91 W/m2
03:59 43.6 °F 42.54 °F 29.80 in Calm     96% 0 in WeatherCatV3.04B91 W/m2
04:04 43.6 °F 42.54 °F 29.80 in Calm     96% 0 in WeatherCatV3.04B91 W/m2
04:09 43.5 °F 42.44 °F 29.80 in Calm     96% 0 in WeatherCatV3.04B91 W/m2
04:14 43.5 °F 42.44 °F 29.80 in Calm     96% 0 in WeatherCatV3.04B91 W/m2
04:19 43.3 °F 42.24 °F 29.80 in Calm     96% 0 in WeatherCatV3.04B91 W/m2
04:24 43.3 °F 42.24 °F 29.80 in Calm     96% 0 in WeatherCatV3.04B91 W/m2
04:29 43.3 °F 42.24 °F 29.80 in Calm     96% 0 in WeatherCatV3.04B91 W/m2
04:34 43.2 °F 42.14 °F 29.80 in Calm     96% 0 in WeatherCatV3.04B91 W/m2
04:39 43.1 °F 42.04 °F 29.80 in Calm     96% 0 in WeatherCatV3.04B91 W/m2
04:44 42.9 °F 41.84 °F 29.81 in Calm     96% 0 in WeatherCatV3.04B91 W/m2
04:49 42.9 °F 42.11 °F 29.81 in Calm     97% 0 in WeatherCatV3.04B91 W/m2
04:54 42.8 °F 42.01 °F 29.81 in Calm     97% 0 in WeatherCatV3.04B91 W/m2
04:59 42.9 °F 42.11 °F 29.81 in Calm     97% 0 in WeatherCatV3.04B91 W/m2
05:04 42.9 °F 42.11 °F 29.81 in Calm     97% 0 in WeatherCatV3.04B91 W/m2
05:09 42.8 °F 42.01 °F 29.81 in Calm     97% 0 in WeatherCatV3.04B91 W/m2
05:14 42.8 °F 42.01 °F 29.81 in Calm     97% 0 in WeatherCatV3.04B91 W/m2
05:19 42.8 °F 42.01 °F 29.81 in Calm     97% 0 in WeatherCatV3.04B91 W/m2
05:24 42.6 °F 41.81 °F 29.81 in Calm     97% 0 in WeatherCatV3.04B91 W/m2
05:29 42.6 °F 41.81 °F 29.82 in Calm     97% 0 in WeatherCatV3.04B91 W/m2
05:34 42.6 °F 41.81 °F 29.82 in Calm     97% 0 in WeatherCatV3.04B91 W/m2
05:39 42.6 °F 41.81 °F 29.82 in Calm     97% 0 in WeatherCatV3.04B91 W/m2
05:44 42.5 °F 41.71 °F 29.82 in Calm     97% 0 in WeatherCatV3.04B91 W/m2
05:49 42.3 °F 41.51 °F 29.82 in Calm     97% 0 in WeatherCatV3.04B91 W/m2
05:54 42.2 °F 41.41 °F 29.82 in Calm     97% 0 in WeatherCatV3.04B91 W/m2
05:59 42.2 °F 41.41 °F 29.83 in Calm     97% 0 in WeatherCatV3.04B91 W/m2
06:04 42.3 °F 41.51 °F 29.83 in Calm     97% 0 in WeatherCatV3.04B91 W/m2
06:09 42.3 °F 41.51 °F 29.83 in Calm     97% 0 in WeatherCatV3.04B91 W/m2
06:14 42.2 °F 41.41 °F 29.83 in Calm     97% 0 in WeatherCatV3.04B91 W/m2
06:19 42.1 °F 41.31 °F 29.83 in Calm     97% 0 in WeatherCatV3.04B91 W/m2
06:24 42.1 °F 41.31 °F 29.83 in Calm     97% 0 in WeatherCatV3.04B91 W/m2
06:29 42.2 °F 41.41 °F 29.85 in Calm     97% 0 in WeatherCatV3.04B91 W/m2
06:34 42.3 °F 41.51 °F 29.85 in Calm     97% 0 in WeatherCatV3.04B91 W/m2
06:39 42.3 °F 41.51 °F 29.85 in Calm     97% 0 in WeatherCatV3.04B91 W/m2
06:44 42.5 °F 41.71 °F 29.85 in Calm     97% 0 in WeatherCatV3.04B91 W/m2
06:49 42.5 °F 41.97 °F 29.85 in Calm     98% 0 in WeatherCatV3.04B91 W/m2
06:54 42.6 °F 42.07 °F 29.85 in Calm     98% 0 in WeatherCatV3.04B91 W/m2
06:59 42.8 °F 42.27 °F 29.85 in Calm     98% 0 in WeatherCatV3.04B91 W/m2
07:04 42.9 °F 42.37 °F 29.85 in Calm     98% 0 in WeatherCatV3.04B91 W/m2
07:09 43.1 °F 42.57 °F 29.85 in Calm     98% 0 in WeatherCatV3.04B91 W/m2
07:14 43.3 °F 42.77 °F 29.86 in Calm     98% 0 in WeatherCatV3.04B91 W/m2
07:19 43.8 °F 43.27 °F 29.86 in Calm     98% 0 in WeatherCatV3.04B91 W/m2
07:24 44.2 °F 43.67 °F 29.86 in Calm     98% 0 in WeatherCatV3.04B91 W/m2
07:29 44.5 °F 43.97 °F 29.86 in Calm     98% 0 in WeatherCatV3.04B91 W/m2
07:34 44.8 °F 44.27 °F 29.86 in Calm     98% 0 in WeatherCatV3.04B91 W/m2
07:39 44.8 °F 44.27 °F 29.86 in Calm     98% 0 in WeatherCatV3.04B91 W/m2
07:44 44.9 °F 44.37 °F 29.86 in Calm     98% 0 in WeatherCatV3.04B91 W/m2
07:49 45.2 °F 44.67 °F 29.86 in Calm     98% 0 in WeatherCatV3.04B91 W/m2
07:54 46.1 °F 45.83 °F 29.86 in Calm     99% 0 in WeatherCatV3.04B91 W/m2
07:59 46.7 °F 46.43 °F 29.85 in Calm     99% 0 in WeatherCatV3.04B91 W/m2
08:04 47.3 °F 47.03 °F 29.85 in Calm     99% 0 in WeatherCatV3.04B91 W/m2
08:09 48.2 °F 47.93 °F 29.85 in Calm     99% 0 in WeatherCatV3.04B91 W/m2
08:14 48.9 °F 48.63 °F 29.86 in Calm     99% 0 in WeatherCatV3.04B91 W/m2
08:19 49.6 °F 49.33 °F 29.86 in Calm     99% 0 in WeatherCatV3.04B91 W/m2
08:24 50.5 °F 50.23 °F 29.86 in Calm     99% 0 in WeatherCatV3.04B91 W/m2
08:29 51 °F 50.45 °F 29.85 in Calm     98% 0 in WeatherCatV3.04B91 W/m2
08:34 51.3 °F 50.75 °F 29.85 in Calm     98% 0 in WeatherCatV3.04B91 W/m2
08:39 51.6 °F 51.05 °F 29.85 in Calm     98% 0 in WeatherCatV3.04B91 W/m2
08:44 52 °F 51.17 °F 29.85 in Calm     97% 0 in WeatherCatV3.04B91 W/m2
08:49 52.5 °F 51.67 °F 29.85 in Calm     97% 0 in WeatherCatV3.04B91 W/m2
08:54 53.1 °F 52.27 °F 29.85 in Calm     97% 0 in WeatherCatV3.04B91 W/m2
08:59 52.9 °F 51.79 °F 29.84 in Calm     96% 0 in WeatherCatV3.04B91 W/m2
09:04 52.3 °F 50.91 °F 29.84 in Calm     95% 0 in WeatherCatV3.04B91 W/m2
09:09 51.6 °F 50.5 °F 29.84 in Calm     96% 0 in WeatherCatV3.04B91 W/m2
09:14 51.4 °F 50.3 °F 29.84 in Calm     96% 0 in WeatherCatV3.04B91 W/m2
09:19 51 °F 49.9 °F 29.84 in Calm     96% 0 in WeatherCatV3.04B91 W/m2
09:24 51 °F 49.9 °F 29.84 in Calm     96% 0 in WeatherCatV3.04B91 W/m2
09:29 51 °F 49.9 °F 29.84 in Calm     96% 0 in WeatherCatV3.04B91 W/m2
09:34 51 °F 49.9 °F 29.84 in Calm   1 mph 96% 0 in WeatherCatV3.04B91 W/m2
09:39 50.8 °F 49.98 °F 29.84 in Calm     97% 0 in WeatherCatV3.04B91 W/m2
09:44 51 °F 50.18 °F 29.84 in Calm     97% 0 in WeatherCatV3.04B91 W/m2
09:49 51 °F 50.45 °F 29.84 in Calm     98% 0 in WeatherCatV3.04B91 W/m2
09:54 51.1 °F 50.55 °F 29.84 in Calm     98% 0 in WeatherCatV3.04B91 W/m2
09:59 51.1 °F 50.83 °F 29.84 in Calm     99% 0 in WeatherCatV3.04B91 W/m2
10:04 51.3 °F 51.03 °F 29.84 in Calm     99% 0 in WeatherCatV3.04B91 W/m2
10:09 51.3 °F 51.03 °F 29.84 in Calm     99% 0 in WeatherCatV3.04B91 W/m2
10:14 51.7 °F 51.7 °F 29.84 in Calm   3 mph 100% 0 in WeatherCatV3.04B91 W/m2
10:19 52 °F 52 °F 29.84 in Calm   3 mph 100% 0 in WeatherCatV3.04B91 W/m2
10:24 52 °F 52 °F 29.84 in Calm     100% 0 in WeatherCatV3.04B91 W/m2
10:29 52 °F 52 °F 29.84 in Calm     100% 0 in WeatherCatV3.04B91 W/m2
10:34 52 °F 52 °F 29.84 in Calm     100% 0 in WeatherCatV3.04B91 W/m2
10:39 52.2 °F 52.2 °F 29.84 in SW 2 mph 2 mph 100% 0 in WeatherCatV3.04B91 W/m2
10:44 52.3 °F 52.3 °F 29.84 in Calm     100% 0 in WeatherCatV3.04B91 W/m2
10:49 52.8 °F 52.8 °F 29.84 in Calm     100% 0 in WeatherCatV3.04B91 W/m2
10:54 52.9 °F 52.9 °F 29.84 in Calm   1 mph 100% 0 in WeatherCatV3.04B91 W/m2
10:59 52.8 °F 52.8 °F 29.84 in Calm     100% 0 in WeatherCatV3.04B91 W/m2
11:04 53.1 °F 53.1 °F 29.84 in Calm   3 mph 100% 0 in WeatherCatV3.04B91 W/m2
11:09 53.3 °F 53.3 °F 29.84 in Calm     100% 0 in WeatherCatV3.04B91 W/m2
11:14 53.8 °F 53.8 °F 29.83 in Calm     100% 0 in WeatherCatV3.04B91 W/m2
11:19 53.9 °F 53.9 °F 29.83 in Calm   1 mph 100% 0 in WeatherCatV3.04B91 W/m2
11:24 54.1 °F 54.1 °F 29.83 in SW 4 mph 4 mph 100% 0 in WeatherCatV3.04B91 W/m2
11:29 54.5 °F 54.5 °F 29.83 in Calm     100% 0 in WeatherCatV3.04B91 W/m2
11:34 55 °F 55 °F 29.83 in Calm     100% 0 in WeatherCatV3.04B91 W/m2
11:39 55 °F 55 °F 29.83 in Calm   1 mph 100% 0 in WeatherCatV3.04B91 W/m2
11:44 55.6 °F 55.6 °F 29.83 in Calm     100% 0 in WeatherCatV3.04B91 W/m2
11:49 55.7 °F 55.7 °F 29.83 in Calm     100% 0 in WeatherCatV3.04B91 W/m2
11:54 55.7 °F 55.7 °F 29.83 in SW 2 mph 6 mph 100% 0 in WeatherCatV3.04B91 W/m2
11:59 56 °F 56 °F 29.82 in Calm   2 mph 100% 0 in WeatherCatV3.04B91 W/m2
12:04 55.7 °F 55.42 °F 29.82 in SW 1 mph 7 mph 99% 0 in WeatherCatV3.04B91 W/m2
12:09 56.3 °F 56.02 °F 29.82 in SSW 2 mph 5 mph 99% 0 in WeatherCatV3.04B91 W/m2
12:14 56.5 °F 55.94 °F 29.82 in Calm   2 mph 98% 0 in WeatherCatV3.04B91 W/m2
12:19 56.6 °F 55.47 °F 29.82 in WSW 3 mph 7 mph 96% 0 in WeatherCatV3.04B91 W/m2
12:24 57 °F 55.58 °F 29.82 in Calm   4 mph 95% 0 in WeatherCatV3.04B91 W/m2
12:29 57.6 °F 55.59 °F 29.81 in Calm   6 mph 93% 0 in WeatherCatV3.04B91 W/m2
12:34 58.1 °F 55.48 °F 29.81 in WSW 3 mph 7 mph 91% 0 in WeatherCatV3.04B91 W/m2
12:39 58.6 °F 53.78 °F 29.81 in Calm   5 mph 84% 0 in WeatherCatV3.04B91 W/m2
12:44 59.3 °F 52.44 °F 29.81 in SSW 4 mph 9 mph 78% 0 in WeatherCatV3.04B91 W/m2
12:49 60.2 °F 51.14 °F 29.81 in Calm     72% 0 in WeatherCatV3.04B91 W/m2
12:54 61 °F 49.96 °F 29.81 in Calm   4 mph 67% 0 in WeatherCatV3.04B91 W/m2
12:59 62 °F 49.68 °F 29.79 in Calm   4 mph 64% 0 in WeatherCatV3.04B91 W/m2
13:04 62.7 °F 50.34 °F 29.79 in SW 1 mph 1 mph 64% 0 in WeatherCatV3.04B91 W/m2
13:09 63.2 °F 50.39 °F 29.79 in Calm   4 mph 63% 0 in WeatherCatV3.04B91 W/m2
13:14 63.1 °F 48.98 °F 29.79 in Calm     60% 0 in WeatherCatV3.04B91 W/m2
13:19 63.1 °F 50.72 °F 29.79 in Calm   3 mph 64% 0 in WeatherCatV3.04B91 W/m2
13:24 63.1 °F 49.86 °F 29.79 in Calm     62% 0 in WeatherCatV3.04B91 W/m2
13:29 63.2 °F 49.52 °F 29.79 in Calm     61% 0 in WeatherCatV3.04B91 W/m2
13:34 63.5 °F 50.24 °F 29.79 in Calm   1 mph 62% 0 in WeatherCatV3.04B91 W/m2
13:39 64.2 °F 50.46 °F 29.79 in Calm   6 mph 61% 0 in WeatherCatV3.04B91 W/m2
13:44 64.8 °F 51.03 °F 29.78 in Calm   2 mph 61% 0 in WeatherCatV3.04B91 W/m2
13:49 65.5 °F 50.78 °F 29.78 in Calm   7 mph 59% 0 in WeatherCatV3.04B91 W/m2
13:54 65.8 °F 49.66 °F 29.78 in Calm   4 mph 56% 0 in WeatherCatV3.04B91 W/m2
13:59 65.6 °F 49.47 °F 29.77 in Calm   3 mph 56% 0 in WeatherCatV3.04B91 W/m2
14:04 65.3 °F 48.71 °F 29.77 in Calm     55% 0 in WeatherCatV3.04B91 W/m2
14:09 65.5 °F 50.78 °F 29.77 in Calm     59% 0 in WeatherCatV3.04B91 W/m2
14:14 66.1 °F 49.45 °F 29.78 in Calm     55% 0 in WeatherCatV3.04B91 W/m2
14:19 66.1 °F 48.96 °F 29.78 in SSW 1 mph 1 mph 54% 0 in WeatherCatV3.04B91 W/m2
14:24 66.6 °F 49.43 °F 29.78 in Calm     54% 0 in WeatherCatV3.04B91 W/m2
14:29 66.8 °F 48.6 °F 29.77 in Calm   3 mph 52% 0 in WeatherCatV3.04B91 W/m2
14:34 66.1 °F 48.46 °F 29.77 in WSW 3 mph 6 mph 53% 0 in WeatherCatV3.04B91 W/m2
14:39 66.1 °F 48.96 °F 29.77 in Calm     54% 0 in WeatherCatV3.04B91 W/m2
14:44 65.8 °F 48.68 °F 29.77 in Calm     54% 0 in WeatherCatV3.04B91 W/m2
14:49 66.1 °F 48.46 °F 29.77 in Calm     53% 0 in WeatherCatV3.04B91 W/m2
14:54 66.4 °F 49.24 °F 29.77 in Calm     54% 0 in WeatherCatV3.04B91 W/m2
14:59 66.1 °F 48.46 °F 29.76 in Calm   2 mph 53% 0 in WeatherCatV3.04B91 W/m2
15:04 66.1 °F 48.96 °F 29.76 in Calm   1 mph 54% 0 in WeatherCatV3.04B91 W/m2
15:09 66.6 °F 49.43 °F 29.76 in Calm   10 mph 54% 0 in WeatherCatV3.04B91 W/m2
15:14 67.1 °F 50.38 °F 29.76 in Calm     55% 0 in WeatherCatV3.04B91 W/m2
15:19 67.6 °F 48.82 °F 29.76 in SSW 2 mph 2 mph 51% 0 in WeatherCatV3.04B91 W/m2
15:24 67.4 °F 49.15 °F 29.76 in Calm     52% 0 in WeatherCatV3.04B91 W/m2
15:29 68.1 °F 50.31 °F 29.75 in Calm   5 mph 53% 0 in WeatherCatV3.04B91 W/m2
15:34 67.6 °F 47.2 °F 29.75 in Calm     48% 0 in WeatherCatV3.04B91 W/m2
15:39 66.8 °F 47.55 °F 29.75 in Calm     50% 0 in WeatherCatV3.04B91 W/m2
15:44 66.9 °F 49.2 °F 29.75 in Calm   4 mph 53% 0 in WeatherCatV3.04B91 W/m2
15:49 67.6 °F 48.82 °F 29.75 in Calm   5 mph 51% 0 in WeatherCatV3.04B91 W/m2
15:54 68.1 °F 48.21 °F 29.75 in Calm   1 mph 49% 0 in WeatherCatV3.04B91 W/m2
15:59 67.6 °F 47.75 °F 29.75 in Calm   1 mph 49% 0 in WeatherCatV3.04B91 W/m2
16:04 67.4 °F 48.63 °F 29.75 in Calm     51% 0 in WeatherCatV3.04B91 W/m2
16:09 67.3 °F 48.01 °F 29.75 in Calm   2 mph 50% 0 in WeatherCatV3.04B91 W/m2
16:14 67.6 °F 48.82 °F 29.75 in Calm   6 mph 51% 0 in WeatherCatV3.04B91 W/m2
16:19 67.8 °F 48.47 °F 29.75 in Calm     50% 0 in WeatherCatV3.04B91 W/m2
16:24 67.8 °F 48.47 °F 29.75 in Calm     50% 0 in WeatherCatV3.04B91 W/m2
16:29 67.8 °F 49 °F 29.74 in Calm   3 mph 51% 0 in WeatherCatV3.04B91 W/m2
16:34 67.6 °F 49.34 °F 29.74 in Calm     52% 0 in WeatherCatV3.04B91 W/m2
16:39 67.6 °F 49.85 °F 29.74 in Calm   1 mph 53% 0 in WeatherCatV3.04B91 W/m2
16:44 67.6 °F 49.85 °F 29.74 in Calm     53% 0 in WeatherCatV3.04B91 W/m2
16:49 67.4 °F 49.67 °F 29.74 in Calm     53% 0 in WeatherCatV3.04B91 W/m2
16:54 67.4 °F 49.67 °F 29.74 in Calm   1 mph 53% 0 in WeatherCatV3.04B91 W/m2
16:59 67.4 °F 50.17 °F 29.74 in Calm     54% 0 in WeatherCatV3.04B91 W/m2
17:04 67.4 °F 50.17 °F 29.74 in Calm     54% 0 in WeatherCatV3.04B91 W/m2
17:09 67.3 °F 50.08 °F 29.74 in Calm     54% 0 in WeatherCatV3.04B91 W/m2
17:14 67.6 °F 50.85 °F 29.74 in Calm     55% 0 in WeatherCatV3.04B91 W/m2
17:19 67.6 °F 50.35 °F 29.74 in Calm   1 mph 54% 0 in WeatherCatV3.04B91 W/m2
17:24 67.8 °F 51.03 °F 29.74 in Calm     55% 0 in WeatherCatV3.04B91 W/m2
17:29 67.8 °F 50.54 °F 29.73 in Calm     54% 0 in WeatherCatV3.04B91 W/m2
17:34 67.8 °F 50.54 °F 29.73 in Calm   1 mph 54% 0 in WeatherCatV3.04B91 W/m2
17:39 67.8 °F 51.03 °F 29.73 in Calm   3 mph 55% 0 in WeatherCatV3.04B91 W/m2
17:44 67.8 °F 50.54 °F 29.73 in Calm     54% 0 in WeatherCatV3.04B91 W/m2
17:49 67.8 °F 50.54 °F 29.73 in Calm     54% 0 in WeatherCatV3.04B91 W/m2
17:54 67.9 °F 51.13 °F 29.73 in Calm   1 mph 55% 0 in WeatherCatV3.04B91 W/m2
17:59 68.1 °F 51.8 °F 29.73 in Calm   1 mph 56% 0 in WeatherCatV3.04B91 W/m2
18:04 67.9 °F 50.63 °F 29.73 in Calm     54% 0 in WeatherCatV3.04B91 W/m2
18:09 67.8 °F 50.54 °F 29.73 in Calm     54% 0 in WeatherCatV3.04B91 W/m2
18:14 67.8 °F 51.03 °F 29.73 in Calm     55% 0 in WeatherCatV3.04B91 W/m2
18:19 67.8 °F 51.03 °F 29.73 in Calm   4 mph 55% 0 in WeatherCatV3.04B91 W/m2
18:24 67.8 °F 50.54 °F 29.73 in Calm     54% 0 in WeatherCatV3.04B91 W/m2
18:29 67.8 °F 51.03 °F 29.72 in Calm     55% 0 in WeatherCatV3.04B91 W/m2
18:34 67.8 °F 50.54 °F 29.72 in Calm   4 mph 54% 0 in WeatherCatV3.04B91 W/m2
18:39 67.6 °F 49.85 °F 29.72 in Calm   3 mph 53% 0 in WeatherCatV3.04B91 W/m2
18:44 67.4 °F 50.17 °F 29.72 in Calm     54% 0 in WeatherCatV3.04B91 W/m2
18:49 67.4 °F 50.66 °F 29.72 in Calm   1 mph 55% 0 in WeatherCatV3.04B91 W/m2
18:54 67.6 °F 50.35 °F 29.72 in Calm   1 mph 54% 0 in WeatherCatV3.04B91 W/m2
18:59 67.6 °F 50.35 °F 29.71 in Calm     54% 0 in WeatherCatV3.04B91 W/m2
19:04 67.6 °F 50.35 °F 29.71 in Calm   2 mph 54% 0 in WeatherCatV3.04B91 W/m2
19:09 67.8 °F 50.54 °F 29.71 in Calm   1 mph 54% 0 in WeatherCatV3.04B91 W/m2
19:14 67.6 °F 50.35 °F 29.71 in Calm   1 mph 54% 0 in WeatherCatV3.04B91 W/m2
19:19 67.6 °F 50.35 °F 29.71 in Calm     54% 0 in WeatherCatV3.04B91 W/m2
19:24 67.4 °F 50.17 °F 29.71 in Calm   3 mph 54% 0 in WeatherCatV3.04B91 W/m2
19:29 67.3 °F 50.08 °F 29.71 in Calm   5 mph 54% 0 in WeatherCatV3.04B91 W/m2
19:34 67.1 °F 49.89 °F 29.71 in Calm     54% 0 in WeatherCatV3.04B91 W/m2
19:39 66.9 °F 50.2 °F 29.71 in Calm     55% 0 in WeatherCatV3.04B91 W/m2
19:44 66.8 °F 50.1 °F 29.71 in Calm   6 mph 55% 0 in WeatherCatV3.04B91 W/m2
19:49 66.6 °F 49.92 °F 29.71 in Calm     55% 0 in WeatherCatV3.04B91 W/m2
19:54 66.4 °F 50.22 °F 29.71 in Calm     56% 0 in WeatherCatV3.04B91 W/m2
19:59 66.3 °F 50.12 °F 29.72 in Calm     56% 0 in WeatherCatV3.04B91 W/m2
20:04 66 °F 50.32 °F 29.72 in Calm   4 mph 57% 0 in WeatherCatV3.04B91 W/m2
20:09 65.8 °F 50.14 °F 29.72 in Calm     57% 0 in WeatherCatV3.04B91 W/m2
20:14 65.6 °F 50.42 °F 29.71 in Calm     58% 0 in WeatherCatV3.04B91 W/m2
20:19 65.3 °F 50.14 °F 29.71 in Calm     58% 0 in WeatherCatV3.04B91 W/m2
20:24 65.2 °F 50.5 °F 29.71 in Calm     59% 0 in WeatherCatV3.04B91 W/m2
20:29 65 °F 50.77 °F 29.71 in Calm     60% 0 in WeatherCatV3.04B91 W/m2
20:34 64.8 °F 51.03 °F 29.71 in Calm     61% 0 in WeatherCatV3.04B91 W/m2
20:39 64.5 °F 51.62 °F 29.71 in Calm     63% 0 in WeatherCatV3.04B91 W/m2
20:44 64.3 °F 51.86 °F 29.71 in Calm     64% 0 in WeatherCatV3.04B91 W/m2
20:49 64 °F 51.99 °F 29.71 in Calm     65% 0 in WeatherCatV3.04B91 W/m2
20:54 63.7 °F 51.71 °F 29.71 in Calm     65% 0 in WeatherCatV3.04B91 W/m2
20:59 63.5 °F 51.93 °F 29.71 in Calm     66% 0 in WeatherCatV3.04B91 W/m2
21:04 63.2 °F 51.65 °F 29.71 in Calm     66% 0 in WeatherCatV3.04B91 W/m2
21:09 63.1 °F 51.96 °F 29.71 in Calm     67% 0 in WeatherCatV3.04B91 W/m2
21:14 62.9 °F 51.77 °F 29.72 in Calm     67% 0 in WeatherCatV3.04B91 W/m2
21:19 62.6 °F 51.88 °F 29.72 in Calm     68% 0 in WeatherCatV3.04B91 W/m2
21:24 62.4 °F 51.69 °F 29.72 in Calm     68% 0 in WeatherCatV3.04B91 W/m2
21:29 62.1 °F 51.8 °F 29.73 in Calm     69% 0 in WeatherCatV3.04B91 W/m2
21:34 62 °F 51.71 °F 29.73 in Calm     69% 0 in WeatherCatV3.04B91 W/m2
21:39 62 °F 51.71 °F 29.73 in Calm     69% 0 in WeatherCatV3.04B91 W/m2
21:44 61.8 °F 51.91 °F 29.73 in Calm     70% 0 in WeatherCatV3.04B91 W/m2
21:49 61.6 °F 51.72 °F 29.73 in Calm     70% 0 in WeatherCatV3.04B91 W/m2
21:54 61.5 °F 51.62 °F 29.73 in Calm     70% 0 in WeatherCatV3.04B91 W/m2
21:59 61.3 °F 51.81 °F 29.74 in Calm     71% 0 in WeatherCatV3.04B91 W/m2
22:04 61.2 °F 51.72 °F 29.74 in Calm     71% 0 in WeatherCatV3.04B91 W/m2
22:09 61.2 °F 51.72 °F 29.74 in Calm     71% 0 in WeatherCatV3.04B91 W/m2
22:14 61.2 °F 51.72 °F 29.73 in Calm   1 mph 71% 0 in WeatherCatV3.04B91 W/m2
22:19 61.2 °F 52.1 °F 29.73 in Calm     72% 0 in WeatherCatV3.04B91 W/m2
22:24 61.2 °F 52.1 °F 29.73 in Calm     72% 0 in WeatherCatV3.04B91 W/m2
22:29 61 °F 51.9 °F 29.73 in Calm     72% 0 in WeatherCatV3.04B91 W/m2
22:34 61 °F 51.9 °F 29.73 in Calm     72% 0 in WeatherCatV3.04B91 W/m2
22:39 60.9 °F 51.81 °F 29.73 in Calm     72% 0 in WeatherCatV3.04B91 W/m2
22:44 60.7 °F 51.62 °F 29.73 in Calm     72% 0 in WeatherCatV3.04B91 W/m2
22:49 60.7 °F 51.62 °F 29.73 in Calm     72% 0 in WeatherCatV3.04B91 W/m2
22:54 60.5 °F 51.42 °F 29.73 in Calm     72% 0 in WeatherCatV3.04B91 W/m2
22:59 60.4 °F 51.33 °F 29.74 in Calm   3 mph 72% 0 in WeatherCatV3.04B91 W/m2
23:04 60.4 °F 51.7 °F 29.74 in Calm     73% 0 in WeatherCatV3.04B91 W/m2
23:09 60.2 °F 51.51 °F 29.74 in Calm     73% 0 in WeatherCatV3.04B91 W/m2
23:14 60.2 °F 51.51 °F 29.73 in Calm     73% 0 in WeatherCatV3.04B91 W/m2
23:19 60.2 °F 51.51 °F 29.73 in Calm     73% 0 in WeatherCatV3.04B91 W/m2
23:24 60.2 °F 51.51 °F 29.73 in Calm     73% 0 in WeatherCatV3.04B91 W/m2
23:29 60.2 °F 51.14 °F 29.73 in Calm     72% 0 in WeatherCatV3.04B91 W/m2
23:34 60.2 °F 51.14 °F 29.73 in Calm     72% 0 in WeatherCatV3.04B91 W/m2
23:39 60.2 °F 51.14 °F 29.73 in Calm     72% 0 in WeatherCatV3.04B91 W/m2
23:44 60.2 °F 51.14 °F 29.73 in Calm     72% 0 in WeatherCatV3.04B91 W/m2
23:49 60.1 °F 51.41 °F 29.73 in Calm     73% 0 in WeatherCatV3.04B91 W/m2
23:54 59.9 °F 51.22 °F 29.73 in Calm     73% 0 in WeatherCatV3.04B91 W/m2
23:59 59.8 °F 51.12 °F 29.73 in Calm     73% 0 in WeatherCatV3.04B91 W/m2
Bellevue, Nebraska, USA
Compliments of Weather Underground - 3.25 mb